Time;durP1;ratioP1;P1;durP2;ratioP2;P2;SDS_P1;SDS_P2;PMS_P1;PMS_P2;Temp;Humidity;BMP_temperature;BMP_pressure;BME280_temperature;BME280_humidity;BME280_pressure;Samples;Min_cycle;Max_cycle;Signal;HPM_P1;HPM_P2
2022/02/07 00:01:01;;;;;;;60.00;54.60;;;;;;;-1.49;100.00;100791.75;4975667;28;20046;-78
2022/02/07 00:03:39;;;;;;;56.55;51.53;;;;;;;-1.29;100.00;100789.28;4967497;28;20413;-79
2022/02/07 00:06:07;;;;;;;60.28;55.80;;;;;;;-1.27;100.00;100787.34;4963610;28;20049;-80
2022/02/07 00:08:35;;;;;;;52.67;48.75;;;;;;;-1.02;100.00;100783.56;4966279;28;20043;-81
2022/02/07 00:11:02;;;;;;;49.33;45.78;;;;;;;-0.83;100.00;100785.44;4975488;28;20177;-80
2022/02/07 00:13:29;;;;;;;54.47;50.22;;;;;;;-1.03;100.00;100784.47;4975219;28;20551;-81
2022/02/07 00:15:57;;;;;;;53.65;49.95;;;;;;;-1.23;100.00;100779.19;4975281;28;20053;-78
2022/02/07 00:18:24;;;;;;;52.72;49.05;;;;;;;-1.36;100.00;100775.94;4975468;28;20055;-78
2022/02/07 00:20:51;;;;;;;50.22;46.40;;;;;;;-1.34;100.00;100761.00;4976086;28;20054;-78
2022/02/07 00:23:20;;;;;;;53.15;48.67;;;;;;;-1.40;100.00;100764.94;4969744;28;20051;-80
2022/02/07 00:25:46;;;;;;;51.05;46.58;;;;;;;-1.51;100.00;100757.19;4965888;28;20462;-78
2022/02/07 00:28:14;;;;;;;55.78;50.88;;;;;;;-1.26;100.00;100755.97;4974747;28;20496;-78
2022/02/07 00:30:40;;;;;;;57.35;51.33;;;;;;;-1.36;100.00;100757.72;4963938;28;20046;-79
2022/02/07 00:33:07;;;;;;;65.55;59.90;;;;;;;-1.64;100.00;100753.94;4972533;28;20046;-80
2022/02/07 00:35:34;;;;;;;65.85;60.03;;;;;;;-1.52;100.00;100741.69;4970685;28;20051;-78
2022/02/07 00:38:05;;;;;;;58.20;52.92;;;;;;;-1.13;100.00;100749.72;4965160;28;20448;-78
2022/02/07 00:40:59;;;;;;;63.63;58.05;;;;;;;-1.31;100.00;100736.47;4975014;28;20503;-78
2022/02/07 00:43:36;;;;;;;61.10;55.83;;;;;;;-1.20;100.00;100732.00;4974773;28;20051;-79
2022/02/07 00:46:09;;;;;;;55.58;50.97;;;;;;;-1.66;100.00;100733.22;4974475;28;20051;-79
2022/02/07 00:48:35;;;;;;;;;;;;;;;-1.38;100.00;100723.13;4968239;28;20055;-79
2022/02/07 00:51:02;;;;;;;63.65;58.15;;;;;;;-1.48;100.00;100722.25;4974391;28;19929;-79
2022/02/07 00:53:31;;;;;;;51.90;47.63;;;;;;;-1.29;100.00;100716.31;4966316;28;20051;-79
2022/02/07 00:55:59;;;;;;;60.35;55.40;;;;;;;-1.50;100.00;100717.16;4966330;28;20097;-78
2022/02/07 00:58:26;;;;;;;57.60;52.97;;;;;;;-1.82;100.00;100718.97;4970639;28;20121;-79
2022/02/07 01:00:53;;;;;;;56.40;51.78;;;;;;;-1.92;100.00;100700.69;4967084;28;20125;-78
2022/02/07 01:03:20;;;;;;;54.85;50.30;;;;;;;-1.80;100.00;100697.06;4969154;28;20058;-78
2022/02/07 01:05:48;;;;;;;59.00;53.85;;;;;;;-2.06;100.00;100688.78;4974028;28;21829;-78
2022/02/07 01:08:18;;;;;;;60.78;56.25;;;;;;;-1.83;100.00;100683.50;4961073;28;20065;-79
2022/02/07 01:10:54;;;;;;;58.60;54.30;;;;;;;-1.53;100.00;100677.50;4972742;28;20101;-79
2022/02/07 01:13:34;;;;;;;61.67;56.80;;;;;;;-2.02;100.00;100671.16;4963561;28;20077;-78
2022/02/07 01:16:11;;;;;;;65.78;61.08;;;;;;;-1.80;100.00;100663.22;4974257;28;20137;-78
2022/02/07 01:49:04;;;;;;;59.53;54.65;;;;;;;-2.29;100.00;100611.78;4969630;28;20054;-81
2022/02/07 01:51:55;;;;;;;54.53;50.35;;;;;;;-1.73;100.00;100607.06;4972515;28;20070;-78
2022/02/07 01:54:32;;;;;;;54.20;50.00;;;;;;;-2.20;100.00;100601.44;4975820;28;20467;-79
2022/02/07 01:56:58;;;;;;;483.83;214.10;;;;;;;-1.07;100.00;100590.19;4976447;28;20051;-78
2022/02/07 01:59:25;;;;;;;69.70;62.05;;;;;;;-0.62;100.00;100585.31;4967437;28;20428;-77
2022/02/07 02:01:54;;;;;;;95.13;67.97;;;;;;;-1.62;100.00;100582.72;4977527;28;20563;-78
2022/02/07 02:04:20;;;;;;;118.82;84.80;;;;;;;-1.45;100.00;100574.31;4976894;28;20109;-81
2022/02/07 02:06:47;;;;;;;127.30;89.47;;;;;;;-1.45;100.00;100574.31;4967493;28;20176;-78
2022/02/07 02:09:14;;;;;;;127.45;85.47;;;;;;;-1.27;100.00;100560.63;4967237;28;20046;-78
2022/02/07 02:11:42;;;;;;;78.00;68.32;;;;;;;-1.54;100.00;100562.06;4964581;28;20507;-81
2022/02/07 02:14:21;;;;;;;70.95;63.47;;;;;;;-1.52;100.00;100562.75;4973589;28;20107;-78
2022/02/07 02:17:06;;;;;;;70.45;63.65;;;;;;;-1.46;100.00;100548.38;4976272;28;20129;-80
2022/02/07 02:20:07;;;;;;;63.80;58.00;;;;;;;-1.75;100.00;100543.06;4973507;28;20062;-79
2022/02/07 02:22:55;;;;;;;67.32;61.17;;;;;;;-1.73;100.00;100538.53;4972736;28;20126;-79
2022/02/07 02:36:27;;;;;;;64.10;58.53;;;;;;;-0.84;100.00;100536.03;4965726;28;20109;-80
2022/02/07 02:45:25;;;;;;;56.33;51.90;;;;;;;-0.86;100.00;100527.50;4970041;28;20050;-80
2022/02/07 02:47:23;;;;;;;56.50;51.85;;;;;;;-1.70;100.00;100518.25;4974074;28;20085;-79
2022/02/07 02:50:02;;;;;;;64.03;58.95;;;;;;;-1.31;100.00;100507.13;4973330;28;20109;-81
2022/02/07 02:52:29;;;;;;;62.72;57.53;;;;;;;-1.54;100.00;100509.97;4971607;28;20054;-79
2022/02/07 02:54:57;;;;;;;64.22;59.35;;;;;;;-1.46;100.00;100506.69;4971039;28;20047;-81
2022/02/07 02:57:24;;;;;;;55.15;50.83;;;;;;;-1.25;100.00;100512.63;4964867;28;20087;-78
2022/02/07 02:59:51;;;;;;;60.50;55.83;;;;;;;-1.73;100.00;100517.69;4976536;28;20050;-79
2022/02/07 03:02:24;;;;;;;61.70;57.40;;;;;;;-1.40;100.00;100514.78;5100641;23;20057;-79
2022/02/07 03:04:51;;;;;;;61.55;56.60;;;;;;;-1.69;100.00;100509.50;5033763;28;20111;-81
2022/02/07 03:07:18;;;;;;;65.03;59.78;;;;;;;-1.82;100.00;100513.28;5034733;28;20050;-79
2022/02/07 03:09:49;;;;;;;62.13;57.35;;;;;;;-1.76;100.00;100505.75;5034722;28;20111;-79
2022/02/07 03:12:18;;;;;;;65.40;61.07;;;;;;;-1.99;100.00;100506.91;5035973;28;20449;-78
2022/02/07 03:14:47;;;;;;;60.63;56.00;;;;;;;-2.22;100.00;100498.44;5034955;28;20049;-78
2022/02/07 03:17:13;;;;;;;65.47;60.88;;;;;;;-2.16;100.00;100509.16;5035337;28;20136;-80
2022/02/07 03:19:40;;;;;;;63.70;58.78;;;;;;;-1.99;100.00;100502.53;5035291;28;20061;-79
2022/02/07 03:22:07;;;;;;;63.75;58.83;;;;;;;-2.46;100.00;100496.09;5034907;28;20049;-78
2022/02/07 03:24:35;;;;;;;70.45;64.90;;;;;;;-2.75;100.00;100496.72;5034561;28;20041;-78
2022/02/07 03:27:02;;;;;;;72.57;67.53;;;;;;;-2.85;100.00;100493.22;5035716;28;20060;-81
2022/02/07 03:29:30;;;;;;;69.38;63.95;;;;;;;-2.93;100.00;100480.84;5034790;28;20057;-78
2022/02/07 03:31:57;;;;;;;71.53;66.20;;;;;;;-2.92;100.00;100487.69;5034997;28;20477;-79
2022/02/07 03:34:23;;;;;;;69.78;64.55;;;;;;;-2.76;100.00;100490.69;5034781;28;20050;-78
2022/02/07 03:36:50;;;;;;;68.50;63.65;;;;;;;-2.66;100.00;100485.56;5034184;28;20555;-78
2022/02/07 03:39:17;;;;;;;67.72;62.58;;;;;;;-2.71;100.00;100489.50;5035034;28;20046;-79
2022/02/07 03:41:44;;;;;;;65.47;60.55;;;;;;;-2.61;100.00;100486.00;5035491;28;20049;-78
2022/02/07 03:44:11;;;;;;;63.25;58.63;;;;;;;-2.71;100.00;100486.91;5034454;28;20042;-79
2022/02/07 03:46:39;;;;;;;58.90;54.78;;;;;;;-3.04;100.00;100484.31;5033578;28;20058;-78
2022/02/07 03:49:06;;;;;;;56.38;52.53;;;;;;;-2.96;100.00;100481.09;5034473;28;20041;-78
2022/02/07 03:51:32;;;;;;;58.40;54.28;;;;;;;-3.10;100.00;100473.59;5034483;28;20054;-79
2022/02/07 03:53:59;;;;;;;57.53;53.50;;;;;;;-2.80;100.00;100473.69;5034687;28;20084;-81
2022/02/07 03:56:27;;;;;;;61.33;56.63;;;;;;;-2.52;100.00;100468.81;5034938;28;20049;-80
2022/02/07 03:58:54;;;;;;;58.95;54.28;;;;;;;-3.01;100.00;100460.66;5034575;28;20103;-80
2022/02/07 04:01:24;;;;;;;62.50;58.03;;;;;;;-2.86;100.00;100465.56;5034437;28;20061;-79
2022/02/07 04:03:52;;;;;;;60.83;56.65;;;;;;;-2.92;100.00;100466.06;5032391;28;20500;-78
2022/02/07 04:06:19;;;;;;;59.38;55.25;;;;;;;-2.92;100.00;100468.69;5033913;28;20103;-79
2022/02/07 04:08:49;;;;;;;62.63;57.63;;;;;;;-3.01;100.00;100468.47;5033308;28;20042;-80
2022/02/07 04:11:21;;;;;;;57.38;52.67;;;;;;;-3.01;100.00;100458.06;5032782;28;20478;-81
2022/02/07 04:13:52;;;;;;;57.45;53.30;;;;;;;-3.03;100.00;100459.13;5032957;28;20045;-78
2022/02/07 04:16:19;;;;;;;54.35;50.10;;;;;;;-2.94;100.00;100467.97;5034250;28;20126;-81
2022/02/07 04:18:56;;;;;;;57.42;53.28;;;;;;;-2.98;100.00;100459.59;5033741;28;20053;-80
2022/02/07 04:21:24;;;;;;;57.05;52.75;;;;;;;-3.10;100.00;100455.41;5032918;28;20053;-78
2022/02/07 04:23:51;;;;;;;62.58;57.78;;;;;;;-3.25;100.00;100454.84;5033249;28;20056;-79
2022/02/07 04:26:18;;;;;;;57.00;52.70;;;;;;;-3.12;100.00;100455.50;5034010;28;20053;-81
2022/02/07 04:28:44;;;;;;;63.33;58.47;;;;;;;-2.85;100.00;100447.25;5033808;28;20379;-78
2022/02/07 04:31:11;;;;;;;55.13;50.60;;;;;;;-2.76;100.00;100441.28;5034334;28;20045;-81
2022/02/07 04:33:38;;;;;;;52.55;48.28;;;;;;;-2.83;100.00;100445.34;5033261;28;20081;-78
2022/02/07 04:36:05;;;;;;;55.17;50.67;;;;;;;-2.73;100.00;100442.81;5033476;28;20049;-82
2022/02/07 04:38:33;;;;;;;60.60;55.53;;;;;;;-2.59;100.00;100454.69;5031801;28;20127;-79
2022/02/07 04:41:00;;;;;;;56.75;52.42;;;;;;;-2.47;100.00;100445.03;5033603;28;20112;-81
2022/02/07 04:43:27;;;;;;;59.97;55.08;;;;;;;-2.80;100.00;100450.28;5033624;28;20477;-79
2022/02/07 04:46:04;;;;;;;56.72;52.35;;;;;;;-2.73;100.00;100439.38;5034212;28;20387;-78
2022/02/07 04:48:45;;;;;;;55.42;50.83;;;;;;;-2.36;100.00;100434.53;5027957;28;20053;-79
2022/02/07 04:54:19;;;;;;;56.70;52.10;;;;;;;-2.80;100.00;100439.06;4986588;28;20111;-80
2022/02/07 04:57:11;;;;;;;55.47;50.75;;;;;;;-2.79;100.00;100436.34;5022901;28;20389;-81
2022/02/07 04:59:47;;;;;;;57.90;52.70;;;;;;;-2.87;100.00;100433.56;5033519;28;20130;-78
2022/02/07 05:02:21;;;;;;;58.88;53.88;;;;;;;-2.80;100.00;100426.06;5031179;28;20057;-78
2022/02/07 05:04:54;;;;;;;61.60;56.30;;;;;;;-2.70;100.00;100428.72;5032951;28;20081;-81
2022/02/07 05:15:35;;;;;;;62.53;56.92;;;;;;;-2.77;100.00;100425.81;5050200;28;20052;-80
2022/02/07 05:18:02;;;;;;;54.95;50.47;;;;;;;-2.93;100.00;100421.06;5051746;28;20053;-81
2022/02/07 05:20:29;;;;;;;56.05;51.33;;;;;;;-2.74;100.00;100419.56;5051342;28;20546;-80
2022/02/07 05:22:56;;;;;;;58.20;52.85;;;;;;;-2.85;100.00;100410.84;5050356;28;20102;-78
2022/02/07 05:25:24;;;;;;;61.53;56.03;;;;;;;-2.55;100.00;100419.66;5051907;28;20049;-78
2022/02/07 05:27:51;;;;;;;59.60;53.95;;;;;;;-2.57;100.00;100419.81;5052796;28;20048;-79
2022/02/07 05:30:25;;;;;;;65.35;59.17;;;;;;;-2.69;100.00;100419.97;5052474;28;20060;-80
2022/02/07 05:32:52;;;;;;;69.25;63.58;;;;;;;-2.69;100.00;100417.38;5052366;28;20531;-83
2022/02/07 05:35:19;;;;;;;61.33;56.00;;;;;;;-2.64;100.00;100421.25;5052102;28;20409;-78
2022/02/07 05:37:46;;;;;;;57.85;52.55;;;;;;;-2.42;100.00;100416.84;5052592;28;20384;-81
2022/02/07 05:40:14;;;;;;;52.03;47.60;;;;;;;-2.26;100.00;100406.81;5052598;28;20416;-81
2022/02/07 05:42:42;;;;;;;54.40;49.25;;;;;;;-2.29;100.00;100408.84;5052499;28;20052;-81
2022/02/07 05:45:10;;;;;;;54.35;49.65;;;;;;;-2.31;100.00;100409.78;5052046;28;20037;-78
2022/02/07 05:47:37;;;;;;;65.97;59.67;;;;;;;-2.23;100.00;100406.53;5052625;28;20056;-81
2022/02/07 05:50:05;;;;;;;56.28;51.38;;;;;;;-2.15;100.00;100411.94;5051423;28;20126;-80
2022/02/07 05:52:32;;;;;;;56.97;52.13;;;;;;;-2.01;100.00;100421.13;5052223;28;20551;-79
2022/02/07 05:54:58;;;;;;;57.50;52.40;;;;;;;-2.08;100.00;100425.22;5049193;28;20099;-80
2022/02/07 05:57:32;;;;;;;50.25;46.55;;;;;;;1.01;100.00;100422.03;5051682;28;20451;-79
2022/02/07 06:00:00;;;;;;;55.58;50.75;;;;;;;-1.87;100.00;100414.75;5046942;28;20107;-79
2022/02/07 06:02:33;;;;;;;73.50;67.07;;;;;;;-2.09;100.00;100421.81;5048421;28;20130;-81
2022/02/07 06:05:07;;;;;;;86.38;72.45;;;;;;;-1.94;100.00;100417.03;5049647;28;20074;-79
2022/02/07 06:07:34;;;;;;;109.82;90.88;;;;;;;-1.64;100.00;100413.56;5049198;28;20045;-79
2022/02/07 06:10:00;;;;;;;96.07;85.78;;;;;;;-1.49;100.00;100414.00;5049505;28;20114;-79
2022/02/07 06:12:27;;;;;;;106.38;95.25;;;;;;;-1.41;100.00;100419.34;5049447;28;20052;-79
2022/02/07 06:14:54;;;;;;;113.53;88.47;;;;;;;-1.32;100.00;100409.91;5051569;28;20370;-78
2022/02/07 06:17:22;;;;;;;89.85;80.60;;;;;;;-1.39;100.00;100417.44;5052025;28;20060;-80
2022/02/07 06:19:52;;;;;;;91.68;81.55;;;;;;;-1.25;100.00;100413.59;5052232;28;20480;-79
2022/02/07 06:22:18;;;;;;;95.28;85.20;;;;;;;-1.19;100.00;100425.25;5052919;28;20057;-79
2022/02/07 06:24:46;;;;;;;94.05;84.70;;;;;;;-1.19;100.00;100438.28;5052157;28;20061;-79
2022/02/07 06:27:13;;;;;;;90.10;80.80;;;;;;;-1.11;100.00;100428.03;5052929;28;20052;-80
2022/02/07 06:29:42;;;;;;;89.80;81.03;;;;;;;-1.35;100.00;100410.19;5053130;28;20106;-79
2022/02/07 06:32:09;;;;;;;96.57;86.43;;;;;;;-1.27;100.00;100412.94;5056365;28;20086;-80
2022/02/07 06:34:37;;;;;;;101.65;86.45;;;;;;;-1.20;100.00;100408.00;5055920;28;20045;-79
2022/02/07 06:37:04;;;;;;;98.65;88.13;;;;;;;-1.23;100.00;100398.66;5055592;28;20052;-80
2022/02/07 06:39:31;;;;;;;100.38;89.88;;;;;;;-0.98;100.00;100402.47;5056410;28;20045;-79
2022/02/07 06:41:58;;;;;;;97.35;86.80;;;;;;;-0.86;100.00;100402.34;5055837;28;20118;-79
2022/02/07 06:44:26;;;;;;;97.55;86.35;;;;;;;-0.92;100.00;100394.09;5054580;28;20045;-79
2022/02/07 06:46:54;;;;;;;115.93;97.03;;;;;;;-1.01;100.00;100400.16;5052184;28;20136;-80
2022/02/07 06:49:20;;;;;;;157.55;117.35;;;;;;;-1.12;100.00;100389.03;5056351;28;20053;-79
2022/02/07 06:51:49;;;;;;;110.00;95.95;;;;;;;-0.53;100.00;100380.16;5055862;28;20622;-79
2022/02/07 06:54:16;;;;;;;140.13;108.53;;;;;;;-0.40;100.00;100378.06;5055516;28;20394;-80
2022/02/07 06:56:44;;;;;;;149.15;116.47;;;;;;;-0.35;100.00;100370.63;5056534;28;20118;-80
2022/02/07 06:59:15;;;;;;;135.60;111.72;;;;;;;-0.26;100.00;100382.00;5054349;28;20052;-79
2022/02/07 07:01:42;;;;;;;133.98;110.78;;;;;;;0.03;100.00;100370.56;5054642;28;20060;-79
2022/02/07 07:04:09;;;;;;;132.70;108.03;;;;;;;0.03;100.00;100368.81;5051374;28;20052;-79
2022/02/07 07:06:36;;;;;;;131.13;108.55;;;;;;;0.56;100.00;100370.66;5055489;28;20134;-80
2022/02/07 07:09:05;;;;;;;106.88;96.22;;;;;;;0.70;100.00;100369.31;5052066;28;20052;-80
2022/02/07 07:11:33;;;;;;;108.60;97.05;;;;;;;1.13;100.00;100365.06;5054690;28;20453;-81
2022/02/07 07:14:04;;;;;;;102.18;92.40;;;;;;;1.37;100.00;100365.22;5050274;28;21920;-81
2022/02/07 07:16:50;;;;;;;104.70;94.53;;;;;;;1.62;100.00;100372.38;5055851;28;20060;-80
2022/02/07 07:19:17;;;;;;;104.68;93.95;;;;;;;1.76;100.00;100353.47;5055351;28;20056;-80
2022/02/07 07:21:45;;;;;;;118.93;107.32;;;;;;;1.83;100.00;100350.06;5047171;28;20052;-80
2022/02/07 07:24:13;;;;;;;118.15;106.18;;;;;;;1.90;100.00;100362.50;5053691;28;20114;-79
2022/02/07 07:26:40;;;;;;;115.15;103.20;;;;;;;2.13;100.00;100352.28;5056063;28;20045;-79
2022/02/07 07:29:11;;;;;;;111.32;100.18;;;;;;;2.46;100.00;100356.59;5054286;28;20064;-80
2022/02/07 07:31:43;;;;;;;108.38;97.95;;;;;;;2.67;100.00;100343.03;5052288;28;20084;-79
2022/02/07 07:34:09;;;;;;;102.07;92.72;;;;;;;2.74;100.00;100345.81;5053465;28;20052;-80
2022/02/07 07:36:40;;;;;;;101.80;92.13;;;;;;;3.24;100.00;100344.78;5055571;28;20048;-79
2022/02/07 07:39:07;;;;;;;100.93;91.30;;;;;;;3.37;100.00;100333.75;5051713;28;20049;-79
2022/02/07 07:41:35;;;;;;;96.38;87.38;;;;;;;3.34;100.00;100331.47;5049055;28;20114;-79
2022/02/07 07:44:09;;;;;;;99.55;90.07;;;;;;;3.74;100.00;100327.06;5052238;28;20053;-79
2022/02/07 07:46:42;;;;;;;93.38;84.88;;;;;;;3.72;100.00;100327.22;5055085;28;20122;-80
2022/02/07 07:49:12;;;;;;;98.18;88.68;;;;;;;4.13;100.00;100314.72;5053444;28;20041;-79
2022/02/07 07:51:45;;;;;;;96.47;87.63;;;;;;;4.22;100.00;100309.41;5054034;28;20111;-79
2022/02/07 07:54:22;;;;;;;101.78;92.03;;;;;;;4.15;100.00;100306.66;5052917;28;20660;-80
2022/02/07 08:02:23;;;;;;;104.47;94.40;;;;;;;4.04;100.00;100281.59;5052733;28;20064;-79
2022/02/07 08:04:50;;;;;;;101.00;91.30;;;;;;;4.13;100.00;100287.63;5055130;28;20049;-79
2022/02/07 08:07:20;;;;;;;99.57;90.10;;;;;;;4.13;100.00;100275.28;5054641;28;20452;-79
2022/02/07 08:10:02;;;;;;;94.03;85.60;;;;;;;4.28;100.00;100267.47;5054759;28;20064;-78
2022/02/07 08:12:33;;;;;;;96.75;88.07;;;;;;;4.50;100.00;100263.19;5041306;28;20068;-79
2022/02/07 08:15:00;;;;;;;99.43;90.65;;;;;;;4.82;100.00;100264.72;5052594;28;20081;-79
2022/02/07 08:17:27;;;;;;;101.13;92.40;;;;;;;4.98;100.00;100261.09;5055450;28;20102;-79
2022/02/07 08:19:54;;;;;;;100.13;91.45;;;;;;;4.96;100.00;100251.72;5048207;28;20131;-77
2022/02/07 08:22:23;;;;;;;99.25;89.88;;;;;;;5.20;100.00;100242.75;5054686;28;20053;-81
2022/02/07 08:24:55;;;;;;;103.88;94.25;;;;;;;5.72;100.00;100236.53;5053410;28;20059;-79
2022/02/07 08:27:22;;;;;;;102.13;93.00;;;;;;;6.31;100.00;100228.41;5051216;28;20459;-79
2022/02/07 08:29:51;;;;;;;99.15;89.90;;;;;;;6.77;100.00;100224.50;5055850;28;20049;-78
2022/02/07 08:32:18;;;;;;;97.38;88.65;;;;;;;7.02;100.00;100219.56;5055761;28;20130;-78
2022/02/07 08:34:44;;;;;;;96.75;87.88;;;;;;;7.39;100.00;100222.81;5056680;28;20071;-78
2022/02/07 08:37:11;;;;;;;93.70;84.75;;;;;;;7.99;100.00;100219.34;5055531;28;20049;-79
2022/02/07 08:39:38;;;;;;;95.68;86.97;;;;;;;8.10;100.00;100214.47;5055722;28;20577;-80
2022/02/07 08:42:11;;;;;;;92.10;83.82;;;;;;;7.89;100.00;100220.72;5056727;28;20041;-79
2022/02/07 08:44:38;;;;;;;108.38;96.25;;;;;;;7.61;100.00;100207.66;5052948;28;20053;-79
2022/02/07 08:47:07;;;;;;;175.10;125.18;;;;;;;7.94;100.00;100210.38;5055850;28;20045;-79
2022/02/07 08:49:35;;;;;;;83.13;76.53;;;;;;;8.45;100.00;100197.41;5056070;28;20102;-79
2022/02/07 08:52:03;;;;;;;84.57;77.68;;;;;;;8.80;100.00;100199.00;5053137;28;20138;-79
2022/02/07 08:54:31;;;;;;;78.28;72.65;;;;;;;8.68;100.00;100198.81;5054387;28;22028;-80
2022/02/07 08:57:03;;;;;;;83.15;77.22;;;;;;;8.81;100.00;100185.56;5055740;28;20147;-79
2022/02/07 08:59:37;;;;;;;82.07;76.18;;;;;;;8.75;100.00;100186.41;5055237;28;20132;-79
2022/02/07 09:02:16;;;;;;;76.40;71.07;;;;;;;8.80;100.00;100191.84;5054290;28;20124;-80
2022/02/07 09:04:55;;;;;;;79.78;73.75;;;;;;;8.77;100.00;100192.28;5052655;28;20055;-80
2022/02/07 09:07:26;;;;;;;78.88;72.88;;;;;;;8.88;100.00;100193.50;5056594;28;20049;-79
2022/02/07 09:09:54;;;;;;;77.68;72.18;;;;;;;9.08;100.00;100193.44;5057218;28;20049;-78
2022/02/07 09:12:20;;;;;;;77.82;72.43;;;;;;;9.14;100.00;100182.81;5056342;28;20063;-78
2022/02/07 09:14:57;;;;;;;80.97;75.30;;;;;;;9.45;100.00;100186.56;5055796;28;20128;-79
2022/02/07 09:17:24;;;;;;;80.43;74.90;;;;;;;9.45;100.00;100178.63;5055839;28;20542;-78
2022/02/07 09:19:53;;;;;;;82.22;76.18;;;;;;;9.58;100.00;100167.13;5055446;28;20130;-79
2022/02/07 09:22:19;;;;;;;84.47;78.57;;;;;;;9.52;100.00;100171.44;5055172;28;20492;-77
2022/02/07 09:24:47;;;;;;;84.90;78.90;;;;;;;9.71;100.00;100174.19;5055198;28;20111;-77
2022/02/07 09:27:13;;;;;;;81.95;76.65;;;;;;;9.69;100.00;100166.47;5055897;28;20480;-77
2022/02/07 09:29:40;;;;;;;83.30;77.25;;;;;;;9.68;100.00;100166.66;5055748;28;20049;-79
2022/02/07 09:32:08;;;;;;;82.88;77.07;;;;;;;9.78;100.00;100159.88;5054356;28;20045;-81
2022/02/07 09:34:35;;;;;;;82.72;76.90;;;;;;;9.85;100.00;100152.66;5055774;28;20048;-80
2022/02/07 09:37:03;;;;;;;82.25;76.65;;;;;;;9.90;100.00;100141.44;5055603;28;20053;-81
2022/02/07 09:39:31;;;;;;;83.95;78.45;;;;;;;9.99;99.57;100140.13;5054277;28;20451;-78
2022/02/07 09:42:00;;;;;;;77.40;71.60;;;;;;;10.14;98.67;100139.00;5049268;28;20045;-79
2022/02/07 09:44:29;;;;;;;76.68;70.97;;;;;;;10.16;97.11;100142.25;5051771;28;20131;-79
2022/02/07 09:46:57;;;;;;;81.63;75.93;;;;;;;10.16;96.33;100136.94;5055286;28;20136;-79
2022/02/07 09:49:25;;;;;;;86.80;80.68;;;;;;;10.07;95.74;100128.44;5054348;28;20064;-79
2022/02/07 09:51:53;;;;;;;84.90;78.95;;;;;;;10.00;94.94;100123.19;5052872;28;20511;-79
2022/02/07 09:54:23;;;;;;;83.00;77.00;;;;;;;10.08;93.23;100124.75;5049650;28;20083;-79
2022/02/07 09:56:52;;;;;;;83.05;76.97;;;;;;;9.85;92.63;100123.50;5054914;28;20041;-79
2022/02/07 09:59:22;;;;;;;82.55;76.65;;;;;;;9.82;92.58;100123.13;5054268;28;20052;-80
2022/02/07 10:01:51;;;;;;;85.95;79.68;;;;;;;9.98;92.61;100119.13;5053823;28;20045;-79
2022/02/07 10:04:26;;;;;;;82.43;76.75;;;;;;;10.06;91.30;100108.25;5054466;28;20057;-79
2022/02/07 10:07:00;;;;;;;83.53;77.72;;;;;;;10.13;90.14;100116.13;5054895;28;20048;-79
2022/02/07 10:12:34;;;;;;;81.55;75.90;;;;;;;10.12;89.75;100102.06;5045762;28;20143;-78
2022/02/07 10:15:25;;;;;;;82.13;76.68;;;;;;;10.62;87.59;100091.41;5057140;28;20115;-79
2022/02/07 10:18:05;;;;;;;85.60;79.88;;;;;;;10.91;88.50;100089.03;5057243;28;20057;-78
2022/02/07 10:35:23;;;;;;;79.63;74.00;;;;;;;11.28;83.79;100059.72;5044913;28;20467;-80
2022/02/07 10:38:10;;;;;;;77.68;71.88;;;;;;;11.44;82.63;100051.91;5052857;28;20064;-79
2022/02/07 10:40:41;;;;;;;76.70;71.32;;;;;;;12.00;79.50;100049.81;5051142;28;20182;-78
2022/02/07 10:43:21;;;;;;;79.32;73.40;;;;;;;11.99;77.95;100042.88;5053400;28;20053;-78
2022/02/07 10:46:01;;;;;;;88.28;81.90;;;;;;;11.55;76.76;100036.19;5053275;28;20404;-78
2022/02/07 10:48:39;;;;;;;85.00;78.97;;;;;;;12.46;75.20;100023.38;5049212;28;20501;-78
2022/02/07 10:51:13;;;;;;;85.70;79.70;;;;;;;12.36;75.32;100021.31;5048343;28;20059;-80
2022/02/07 10:53:43;;;;;;;85.85;79.82;;;;;;;12.33;74.60;100005.81;5052128;28;20057;-79
2022/02/07 10:56:10;;;;;;;86.00;79.97;;;;;;;12.34;75.66;100007.41;5054031;28;20079;-80
2022/02/07 10:58:39;;;;;;;87.30;81.40;;;;;;;12.48;74.74;100010.63;5050875;28;20049;-80
2022/02/07 11:01:14;;;;;;;85.80;80.00;;;;;;;12.31;74.85;100003.34;5049966;28;20052;-78
2022/02/07 11:03:46;;;;;;;85.90;79.88;;;;;;;12.15;74.89;100004.91;5053923;28;20061;-80
2022/02/07 11:06:16;;;;;;;87.22;81.32;;;;;;;12.00;74.53;100003.75;5052874;28;20467;-79
2022/02/07 11:08:50;;;;;;;89.95;83.47;;;;;;;12.21;75.31;99994.38;5053824;28;20048;-79
2022/02/07 11:14:24;;;;;;;91.45;85.03;;;;;;;12.47;72.72;99979.72;5033092;28;20055;-80
2022/02/07 11:17:06;;;;;;;93.68;87.07;;;;;;;12.15;74.19;99977.47;5052461;28;20080;-79
2022/02/07 11:19:43;;;;;;;94.35;87.97;;;;;;;12.15;73.87;99972.16;5051097;28;20522;-80
2022/02/07 11:22:24;;;;;;;98.70;91.35;;;;;;;12.32;71.66;99969.56;5041130;28;20048;-77
2022/02/07 11:25:11;;;;;;;97.25;90.35;;;;;;;12.90;70.76;99965.09;5047692;28;20183;-79
2022/02/07 11:27:41;;;;;;;89.15;83.15;;;;;;;12.73;71.04;99965.84;5052682;28;20059;-79
2022/02/07 11:30:11;;;;;;;87.20;81.70;;;;;;;12.56;72.34;99959.66;5054714;28;20473;-79
2022/02/07 11:32:57;;;;;;;93.90;87.70;;;;;;;12.64;69.09;99956.59;5053028;28;20068;-79
2022/02/07 11:35:27;;;;;;;85.47;78.88;;;;;;;12.79;69.82;99954.22;5053228;28;20056;-81
2022/02/07 11:38:11;;;;;;;86.45;79.90;;;;;;;12.64;69.13;99953.94;5050639;28;20469;-79
2022/02/07 11:40:40;;;;;;;86.65;80.35;;;;;;;12.04;70.86;99963.16;5055095;28;20068;-78
2022/02/07 11:43:12;;;;;;;86.57;80.68;;;;;;;11.44;71.94;99956.19;5057628;28;20041;-82
2022/02/07 11:45:52;;;;;;;86.60;80.68;;;;;;;11.82;72.80;99944.25;5057098;28;20492;-77
2022/02/07 11:48:28;;;;;;;84.78;79.05;;;;;;;10.88;70.92;99954.78;5055673;28;20555;-79
2022/02/07 11:50:57;;;;;;;85.93;80.05;;;;;;;11.82;74.34;99948.78;5056452;28;20048;-79
2022/02/07 11:53:31;;;;;;;88.32;82.32;;;;;;;11.75;75.23;99950.75;5057658;28;20136;-80
2022/02/07 11:56:08;;;;;;;85.70;79.90;;;;;;;11.43;76.53;99945.75;5052610;28;20049;-78
2022/02/07 11:59:10;;;;;;;82.80;76.88;;;;;;;11.31;74.31;99944.94;5056399;28;20555;-78
2022/02/07 12:01:53;;;;;;;85.15;79.38;;;;;;;11.50;76.56;99933.19;5054656;28;20045;-80
2022/02/07 12:04:29;;;;;;;84.57;78.78;;;;;;;11.61;77.44;99939.53;5052815;28;20126;-80
2022/02/07 12:07:18;;;;;;;84.68;78.95;;;;;;;11.41;79.05;99948.66;5055559;28;20114;-80
2022/02/07 12:10:26;;;;;;;83.13;77.32;;;;;;;11.30;80.86;99944.13;5054395;28;20080;-79
2022/02/07 12:12:52;;;;;;;84.18;77.65;;;;;;;10.35;84.41;99946.69;5042007;28;20176;-79
2022/02/07 12:15:27;;;;;;;80.55;74.55;;;;;;;10.19;85.22;99942.78;5056055;28;20128;-80
2022/02/07 12:17:57;;;;;;;78.28;72.88;;;;;;;11.15;85.69;99947.22;5054722;28;20053;-79
2022/02/07 12:20:25;;;;;;;81.78;76.30;;;;;;;10.81;87.18;99946.09;5057504;28;20045;-80
2022/02/07 12:22:57;;;;;;;78.80;73.30;;;;;;;10.02;90.71;99937.25;5050640;28;20518;-78
2022/02/07 12:25:44;;;;;;;77.65;71.95;;;;;;;10.94;90.69;99942.44;5055596;28;20382;-78
2022/02/07 12:28:16;;;;;;;82.95;77.07;;;;;;;10.08;90.68;99931.88;5044081;28;20055;-78
2022/02/07 12:30:58;;;;;;;80.60;75.13;;;;;;;10.63;93.83;99939.00;5053997;28;20082;-79
2022/02/07 12:33:27;;;;;;;64.72;60.42;;;;;;;10.78;93.80;99941.25;5054409;28;20439;-79
2022/02/07 12:35:57;;;;;;;59.60;56.00;;;;;;;10.69;95.52;99940.75;5051249;28;20044;-80
2022/02/07 12:38:24;;;;;;;59.78;56.08;;;;;;;10.64;95.80;99945.09;5052580;28;20566;-79
2022/02/07 12:40:51;;;;;;;57.42;53.72;;;;;;;10.52;93.39;99950.38;5055398;28;20469;-79
2022/02/07 12:43:20;;;;;;;58.63;55.22;;;;;;;10.67;99.29;99947.31;5055679;28;20118;-79
2022/02/07 12:45:47;;;;;;;58.40;55.08;;;;;;;9.81;100.00;99949.09;5041639;28;20053;-77